Denhart, Iowa
Current Conditions -  °F | °C
As of 1:15 AM on Thursday 18 Dec 2014 (Local Time) from KCAV Reporting Station
Clear Clear  
Wind Chill:   Ceiling: Unl
Heat Index: 12°   Visibility: 10mi
Dew Point: 10°   Wind: 5mph
Humidity: 92%   Direction: 20°NNE
Pressure: 30.3"   Gusts: NA
Location:  42.9524°N, 93.7361°W
Report Text: KCAV 180715Z AUTO 02004KT 10SM CLR M11/M12 A3030 RMK AO2
Loading
Personal Weather Stations






























Interactive Weather Map New forecast layout! Learn more

10-Day Weather Forecast

Advertisements
Track Severe Weather on mobile